Time;durP1;ratioP1;P1;durP2;ratioP2;P2;SDS_P1;SDS_P2;PMS_P1;PMS_P2;Temp;Humidity;BMP_temperature;BMP_pressure;BME280_temperature;BME280_humidity;BME280_pressure;Samples;Min_cycle;Max_cycle;Signal;HPM_P1;HPM_P2
2022/07/22 00:00:38;;;;;;;7.40;5.05;;;;;;;17.55;100.00;99420.28;1712297;83;21037;-76
2022/07/22 00:03:05;;;;;;;5.12;3.77;;;;;;;17.51;100.00;99432.84;1712210;83;21172;-76
2022/07/22 00:05:34;;;;;;;6.70;4.12;;;;;;;17.51;100.00;99432.84;1727688;81;20981;-77
2022/07/22 00:08:02;;;;;;;4.37;3.42;;;;;;;17.50;100.00;99425.81;1741766;82;21033;-76
2022/07/22 00:10:29;;;;;;;7.22;4.75;;;;;;;17.50;100.00;99435.34;1719120;82;21026;-78
2022/07/22 00:12:55;;;;;;;5.92;4.53;;;;;;;17.48;100.00;99434.82;1740218;82;21054;-79
2022/07/22 00:15:22;;;;;;;4.65;4.25;;;;;;;17.45;100.00;99444.40;1740490;82;21279;-78
2022/07/22 00:17:51;;;;;;;6.33;4.75;;;;;;;17.42;100.00;99442.27;1740160;82;20965;-79
2022/07/22 00:20:19;;;;;;;5.55;4.53;;;;;;;17.41;100.00;99440.09;1735870;81;20994;-79
2022/07/22 00:22:47;;;;;;;4.67;4.22;;;;;;;17.44;100.00;99442.78;1741263;81;20985;-78
2022/07/22 00:25:13;;;;;;;5.50;4.92;;;;;;;17.45;100.00;99447.11;1741615;81;21049;-79
2022/07/22 00:27:40;;;;;;;5.97;4.80;;;;;;;17.44;100.00;99434.07;1723708;81;21483;-77
2022/07/22 00:30:08;;;;;;;7.03;4.17;;;;;;;17.44;100.00;99443.59;1714815;82;21502;-77
2022/07/22 00:32:34;;;;;;;5.85;4.65;;;;;;;17.42;100.00;99439.54;1697688;81;21573;-71
2022/07/22 00:35:01;;;;;;;6.15;4.80;;;;;;;17.41;100.00;99442.00;1737768;81;21376;-71
2022/07/22 00:37:27;;;;;;;5.25;4.12;;;;;;;17.38;100.00;99444.78;1725123;83;21021;-70
2022/07/22 00:39:54;;;;;;;6.00;4.65;;;;;;;17.34;100.00;99449.21;1754636;80;21231;-75
2022/07/22 00:42:22;;;;;;;4.37;3.85;;;;;;;17.32;100.00;99443.26;1756214;81;20948;-79
2022/07/22 00:44:49;;;;;;;5.60;5.08;;;;;;;17.27;100.00;99446.06;1756132;81;21032;-73
2022/07/22 00:47:16;;;;;;;5.40;4.78;;;;;;;17.26;100.00;99449.91;1755663;81;21008;-77
2022/07/22 00:49:42;;;;;;;8.35;4.55;;;;;;;17.26;100.00;99448.55;1754011;81;21004;-77
2022/07/22 00:52:10;;;;;;;5.05;4.50;;;;;;;17.24;100.00;99443.95;1756493;81;21000;-76
2022/07/22 00:54:37;;;;;;;4.85;4.37;;;;;;;17.21;100.00;99449.20;1733009;81;21560;-77
2022/07/22 00:57:04;;;;;;;5.58;4.58;;;;;;;17.19;100.00;99445.41;1756323;81;21035;-76
2022/07/22 00:59:31;;;;;;;5.17;4.70;;;;;;;17.18;100.00;99447.05;1756012;81;21051;-73
2022/07/22 01:01:57;;;;;;;5.03;4.33;;;;;;;17.17;100.00;99442.75;1756415;81;21047;-73
2022/07/22 01:04:24;;;;;;;8.35;4.00;;;;;;;17.17;100.00;99443.53;1765735;81;21249;-73
2022/07/22 01:06:51;;;;;;;6.17;5.50;;;;;;;17.18;100.00;99445.70;1745821;81;21042;-71
2022/07/22 01:09:17;;;;;;;7.55;4.95;;;;;;;17.17;100.00;99449.55;1754502;81;21064;-73
2022/07/22 01:11:45;;;;;;;11.57;4.90;;;;;;;17.15;100.00;99443.59;1727822;81;21092;-76
2022/07/22 01:14:12;;;;;;;11.33;4.78;;;;;;;17.13;100.00;99446.59;1727336;81;22158;-81
2022/07/22 01:16:43;;;;;;;5.50;4.67;;;;;;;17.13;100.00;99441.16;1765365;81;21157;-78
2022/07/22 01:19:10;;;;;;;13.30;5.03;;;;;;;17.15;100.00;99453.91;1734513;81;20905;-78
2022/07/22 01:21:38;;;;;;;5.05;4.55;;;;;;;17.11;100.00;99450.18;1732208;81;21047;-75
2022/07/22 01:24:06;;;;;;;5.10;4.58;;;;;;;17.07;100.00;99447.81;1756134;81;21488;-75
2022/07/22 01:26:33;;;;;;;5.17;4.67;;;;;;;17.06;100.00;99447.55;1757380;80;21126;-75
2022/07/22 01:28:59;;;;;;;5.45;4.30;;;;;;;17.08;100.00;99441.80;1768074;80;21086;-74
2022/07/22 01:31:27;;;;;;;6.28;5.75;;;;;;;17.08;100.00;99445.87;1787409;80;21509;-74
2022/07/22 01:33:54;;;;;;;5.62;5.08;;;;;;;17.08;100.00;99448.59;1787763;80;21200;-75
2022/07/22 01:36:21;;;;;;;5.70;5.17;;;;;;;17.06;100.00;99441.30;1785959;80;21694;-75
2022/07/22 01:38:48;;;;;;;5.95;4.50;;;;;;;17.05;100.00;99444.57;1756742;81;21018;-73
2022/07/22 01:41:15;;;;;;;5.28;4.60;;;;;;;17.04;100.00;99447.58;1757000;80;21286;-73
2022/07/22 01:43:42;;;;;;;5.87;4.47;;;;;;;17.00;100.00;99445.47;1767643;80;20973;-73
2022/07/22 01:46:09;;;;;;;6.25;4.92;;;;;;;16.96;100.00;99451.24;1787147;80;21041;-73
2022/07/22 01:48:40;;;;;;;5.05;4.53;;;;;;;16.94;100.00;99449.91;1741043;81;20996;-75
2022/07/22 01:51:07;;;;;;;4.80;4.33;;;;;;;16.93;100.00;99450.46;1754933;81;21008;-77
2022/07/22 01:53:33;;;;;;;4.83;4.00;;;;;;;16.96;100.00;99451.80;1754919;81;21164;-74
2022/07/22 01:56:00;;;;;;;8.10;4.35;;;;;;;16.95;100.00;99450.98;1755420;80;20963;-75
2022/07/22 01:58:27;;;;;;;5.33;4.15;;;;;;;16.96;100.00;99446.36;1766688;80;21480;-73
2022/07/22 02:00:54;;;;;;;5.35;4.95;;;;;;;16.96;100.00;99453.96;1776941;80;21072;-75
2022/07/22 02:03:21;;;;;;;6.97;6.28;;;;;;;16.94;100.00;99461.59;1756308;81;21051;-74
2022/07/22 02:05:49;;;;;;;6.03;4.10;;;;;;;16.94;100.00;99453.98;1756401;81;21937;-75
2022/07/22 02:08:21;;;;;;;5.33;4.28;;;;;;;16.92;100.00;99450.23;1755959;81;20941;-76
2022/07/22 02:10:59;;;;;;;10.70;5.35;;;;;;;16.90;100.00;99452.42;1752942;81;21490;-76
2022/07/22 02:13:27;;;;;;;5.40;4.90;;;;;;;16.91;100.00;99462.20;1769836;80;20979;-76
2022/07/22 02:15:54;;;;;;;4.90;4.40;;;;;;;16.90;100.00;99471.44;1774062;80;21090;-75
2022/07/22 02:18:21;;;;;;;11.22;7.08;;;;;;;16.89;100.00;99469.02;1755648;81;21318;-75
2022/07/22 02:20:47;;;;;;;6.70;4.42;;;;;;;16.89;100.00;99471.73;1731346;81;21027;-74
2022/07/22 02:23:15;;;;;;;5.60;5.00;;;;;;;16.85;100.00;99471.52;1756048;80;21071;-75
2022/07/22 02:25:42;;;;;;;7.37;4.53;;;;;;;16.84;100.00;99469.91;1756422;81;21005;-76
2022/07/22 02:28:09;;;;;;;5.92;5.25;;;;;;;16.86;100.00;99470.42;1761900;80;21039;-75
2022/07/22 02:30:37;;;;;;;5.58;5.08;;;;;;;16.86;100.00;99478.58;1732960;80;21420;-77
2022/07/22 02:33:04;;;;;;;9.75;4.83;;;;;;;16.84;100.00;99472.62;1756670;81;20936;-78
2022/07/22 02:35:34;;;;;;;4.50;4.10;;;;;;;16.82;100.00;99469.41;1756837;81;21030;-76
2022/07/22 02:38:02;;;;;;;5.55;5.00;;;;;;;16.84;100.00;99472.62;1756403;81;20983;-77
2022/07/22 02:40:29;;;;;;;5.87;4.47;;;;;;;16.85;100.00;99474.78;1755818;80;21122;-77
2022/07/22 02:42:56;;;;;;;7.45;4.37;;;;;;;16.83;100.00;99472.39;1756167;80;21529;-73
2022/07/22 02:45:25;;;;;;;6.58;5.72;;;;;;;16.83;100.00;99479.17;1731808;80;20954;-74
2022/07/22 02:47:54;;;;;;;8.70;5.92;;;;;;;16.84;100.00;99481.31;1728539;83;21524;-76
2022/07/22 02:50:23;;;;;;;6.45;5.10;;;;;;;16.82;100.00;99479.47;1727285;82;21023;-78
2022/07/22 02:52:49;;;;;;;8.23;5.70;;;;;;;16.81;100.00;99476.48;1726023;83;20990;-81
2022/07/22 02:55:17;;;;;;;5.58;5.08;;;;;;;16.81;100.00;99473.77;1757721;81;21912;-79
2022/07/22 02:57:44;;;;;;;4.90;4.45;;;;;;;16.80;100.00;99476.22;1756154;80;21018;-82
2022/07/22 03:00:12;;;;;;;5.30;4.72;;;;;;;16.80;100.00;99474.87;1756564;81;20942;-81
2022/07/22 03:02:41;;;;;;;5.20;4.35;;;;;;;16.82;100.00;99483.54;1757906;81;21020;-80
2022/07/22 03:05:09;;;;;;;10.60;5.62;;;;;;;16.83;100.00;99483.80;1758375;81;21017;-83
2022/07/22 03:07:38;;;;;;;5.42;4.78;;;;;;;16.86;100.00;99485.91;1733746;81;21265;-80
2022/07/22 03:10:08;;;;;;;6.33;5.17;;;;;;;16.87;100.00;99490.25;1759247;81;21517;-81
2022/07/22 03:12:37;;;;;;;5.40;4.83;;;;;;;16.87;100.00;99491.06;1733107;81;21479;-81
2022/07/22 03:15:05;;;;;;;6.62;5.15;;;;;;;16.89;100.00;99492.91;1731440;81;21025;-80
2022/07/22 03:17:35;;;;;;;5.92;5.33;;;;;;;16.92;100.00;99488.81;1709758;81;21511;-79
2022/07/22 03:20:06;;;;;;;6.70;5.58;;;;;;;16.92;100.00;99499.68;1779456;80;21893;-79
2022/07/22 03:22:33;;;;;;;6.90;4.95;;;;;;;16.93;100.00;99503.98;1763286;80;21181;-81
2022/07/22 03:25:00;;;;;;;5.17;4.72;;;;;;;16.95;100.00;99499.08;1790316;80;20986;-79
2022/07/22 03:27:27;;;;;;;7.37;4.95;;;;;;;16.97;100.00;99492.81;1775404;80;20986;-80
2022/07/22 03:29:53;;;;;;;4.45;4.03;;;;;;;16.96;100.00;99495.27;1759118;81;21014;-79
2022/07/22 03:32:20;;;;;;;9.23;5.87;;;;;;;17.00;100.00;99497.64;1755252;81;21198;-79
2022/07/22 03:34:47;;;;;;;6.97;4.70;;;;;;;16.97;100.00;99507.75;1755279;81;21000;-80
2022/07/22 03:37:14;;;;;;;6.47;5.35;;;;;;;16.93;100.00;99504.80;1755138;81;20993;-80
2022/07/22 03:39:43;;;;;;;18.35;5.22;;;;;;;16.95;100.00;99503.16;1751827;81;21514;-81
2022/07/22 03:42:10;;;;;;;5.83;5.28;;;;;;;16.97;100.00;99500.41;1749286;81;21554;-79
2022/07/22 03:44:39;;;;;;;5.78;5.22;;;;;;;16.99;100.00;99517.20;1751121;81;21138;-78
2022/07/22 03:47:06;;;;;;;6.97;5.30;;;;;;;17.00;100.00;99513.39;1751986;81;21060;-79
2022/07/22 03:49:32;;;;;;;6.20;5.60;;;;;;;17.00;100.00;99519.38;1709134;81;21493;-78
2022/07/22 03:52:00;;;;;;;8.75;5.08;;;;;;;17.06;100.00;99505.16;1704810;83;21014;-79
2022/07/22 03:54:26;;;;;;;6.25;5.65;;;;;;;17.07;100.00;99500.80;1704414;83;21043;-82
2022/07/22 03:56:53;;;;;;;5.50;5.00;;;;;;;17.11;100.00;99496.38;1714935;82;21887;-79
2022/07/22 03:59:20;;;;;;;6.33;5.22;;;;;;;17.16;100.00;99500.38;1733733;81;21530;-82
2022/07/22 04:01:47;;;;;;;9.48;5.40;;;;;;;17.16;100.00;99500.38;1733410;82;22268;-78
2022/07/22 04:04:14;;;;;;;5.40;4.42;;;;;;;17.20;100.00;99492.42;1733483;81;21088;-79
2022/07/22 04:06:44;;;;;;;8.43;4.55;;;;;;;17.26;100.00;99493.41;1751861;81;20937;-82
2022/07/22 04:09:12;;;;;;;6.97;5.50;;;;;;;17.32;100.00;99494.09;1733005;82;21167;-87
2022/07/22 04:11:40;;;;;;;4.97;4.47;;;;;;;17.36;100.00;99499.22;1733685;81;20981;-83
2022/07/22 04:14:07;;;;;;;5.30;4.80;;;;;;;17.39;100.00;99501.33;1750095;81;20970;-81
2022/07/22 04:16:35;;;;;;;5.50;5.00;;;;;;;17.42;100.00;99498.00;1737894;81;21523;-85
2022/07/22 04:19:04;;;;;;;6.92;4.58;;;;;;;17.47;100.00;99507.42;1733264;82;21055;-84
2022/07/22 04:21:49;;;;;;;6.28;5.45;;;;;;;17.53;100.00;99503.52;1733394;81;21026;-85
2022/07/22 04:24:16;;;;;;;5.12;4.55;;;;;;;17.59;100.00;99509.16;1733668;81;21535;-92
2022/07/22 04:26:42;;;;;;;5.28;4.78;;;;;;;17.67;100.00;99509.00;1734396;81;20943;-88
2022/07/22 04:29:09;;;;;;;6.47;4.80;;;;;;;17.70;100.00;99507.02;1733842;81;21474;-82
2022/07/22 04:31:36;;;;;;;4.85;4.45;;;;;;;17.73;100.00;99515.97;1730703;81;21576;-79
2022/07/22 04:34:07;;;;;;;5.87;4.65;;;;;;;17.76;100.00;99511.27;1731319;82;21121;-82
2022/07/22 04:36:37;;;;;;;5.12;4.72;;;;;;;17.80;100.00;99516.36;1733291;82;20966;-86
2022/07/22 04:39:05;;;;;;;5.30;4.70;;;;;;;17.86;100.00;99528.21;1732256;82;21017;-83
2022/07/22 04:41:32;;;;;;;7.00;3.70;;;;;;;17.89;100.00;99537.67;1756077;81;21047;-80
2022/07/22 04:43:59;;;;;;;4.80;4.40;;;;;;;17.86;99.53;99536.37;1743230;81;20980;-82
2022/07/22 04:46:27;;;;;;;6.95;5.75;;;;;;;17.90;99.57;99533.04;1708430;82;21564;-83
2022/07/22 04:48:55;;;;;;;5.47;4.97;;;;;;;17.86;99.22;99526.04;1705938;84;21059;-83
2022/07/22 04:51:21;;;;;;;5.78;5.20;;;;;;;17.88;99.50;99537.45;1706664;84;21013;-85
2022/07/22 04:53:49;;;;;;;5.22;4.72;;;;;;;17.94;99.46;99538.94;1707960;81;21536;-81
2022/07/22 04:56:19;;;;;;;5.40;4.90;;;;;;;18.01;99.10;99536.63;1755866;81;21020;-86
2022/07/22 04:58:46;;;;;;;11.35;5.50;;;;;;;18.06;98.71;99538.45;1736655;81;21890;-88
2022/07/22 05:01:12;;;;;;;5.17;4.67;;;;;;;18.13;98.39;99544.30;1765884;81;20914;-85
2022/07/22 05:03:41;;;;;;;7.15;5.03;;;;;;;18.17;97.81;99536.59;1735879;81;20974;-79
2022/07/22 05:06:08;;;;;;;4.90;4.45;;;;;;;18.24;97.65;99542.42;1734605;82;21059;-79
2022/07/22 05:08:37;;;;;;;5.50;5.00;;;;;;;18.27;96.72;99532.85;1734652;82;21012;-77
2022/07/22 05:11:03;;;;;;;6.97;5.25;;;;;;;18.30;96.74;99539.84;1755535;81;21081;-78
2022/07/22 05:13:30;;;;;;;8.03;5.05;;;;;;;18.34;96.32;99529.70;1763456;81;20942;-79
2022/07/22 05:15:57;;;;;;;5.05;4.55;;;;;;;18.36;95.80;99542.47;1733357;82;21531;-77
2022/07/22 05:18:23;;;;;;;5.78;4.65;;;;;;;18.41;95.86;99531.47;1719977;78;21169;-74
2022/07/22 05:20:51;;;;;;;8.33;5.22;;;;;;;18.46;95.55;99534.89;1650422;84;21015;-77
2022/07/22 05:23:18;;;;;;;6.33;4.45;;;;;;;18.53;95.42;99539.91;1673790;85;21093;-82
2022/07/22 05:25:46;;;;;;;7.45;4.40;;;;;;;18.61;95.35;99538.65;1671855;85;20995;-85
2022/07/22 05:28:13;;;;;;;5.42;4.05;;;;;;;18.74;95.11;99547.92;1671037;85;20951;-78
2022/07/22 05:30:43;;;;;;;6.20;4.25;;;;;;;18.83;94.19;99543.91;1670499;84;21512;-80
2022/07/22 05:33:11;;;;;;;6.33;4.55;;;;;;;18.85;92.75;99552.59;1699327;84;21544;-79
2022/07/22 05:35:39;;;;;;;8.58;4.50;;;;;;;18.84;92.78;99547.69;1647705;86;21105;-83
2022/07/22 05:38:06;;;;;;;7.53;4.75;;;;;;;18.86;91.77;99554.98;1670806;84;21030;-80
2022/07/22 05:40:33;;;;;;;4.87;4.30;;;;;;;18.84;90.98;99551.78;1697921;84;20994;-79
2022/07/22 05:43:00;;;;;;;4.25;3.77;;;;;;;18.90;91.30;99556.53;1656658;85;21077;-79
2022/07/22 05:45:28;;;;;;;3.95;3.65;;;;;;;18.98;91.18;99557.19;1669951;86;21199;-81
2022/07/22 05:47:55;;;;;;;4.33;3.95;;;;;;;19.02;90.56;99557.62;1683791;84;21320;-81
2022/07/22 05:50:22;;;;;;;6.58;5.60;;;;;;;19.06;89.85;99553.71;1698943;84;21022;-81
2022/07/22 05:52:49;;;;;;;4.20;3.90;;;;;;;19.06;89.15;99539.52;1694470;82;21046;-78
2022/07/22 05:55:16;;;;;;;4.37;4.03;;;;;;;19.04;89.85;99539.02;1669778;85;21039;-78
2022/07/22 05:57:43;;;;;;;5.78;4.37;;;;;;;19.03;89.02;99542.88;1648934;84;21504;-83
2022/07/22 06:00:11;;;;;;;3.87;3.58;;;;;;;19.08;88.43;99541.95;1699367;84;21580;-81
2022/07/22 06:02:40;;;;;;;4.58;4.25;;;;;;;19.15;88.15;99549.13;1694151;84;21019;-79
2022/07/22 06:05:08;;;;;;;3.92;3.62;;;;;;;19.22;86.71;99548.15;1669661;86;21074;-77
2022/07/22 06:07:35;;;;;;;4.92;4.50;;;;;;;19.27;84.85;99549.39;1671555;84;21482;-76
2022/07/22 06:10:06;;;;;;;4.53;4.10;;;;;;;19.31;84.65;99541.38;1668912;85;21075;-80
2022/07/22 06:12:35;;;;;;;4.00;3.60;;;;;;;19.32;84.02;99542.45;1643268;86;21233;-80
2022/07/22 06:15:04;;;;;;;4.55;4.10;;;;;;;19.33;84.08;99552.80;1643411;87;22311;-76
2022/07/22 06:17:32;;;;;;;4.12;3.67;;;;;;;19.35;82.85;99547.27;1652526;84;21193;-77
2022/07/22 06:20:00;;;;;;;5.00;3.65;;;;;;;19.41;83.79;99542.50;1698366;84;21071;-79
2022/07/22 06:22:27;;;;;;;4.85;4.45;;;;;;;19.46;83.74;99552.75;1693943;83;21138;-78
2022/07/22 06:24:56;;;;;;;4.83;4.40;;;;;;;19.50;84.11;99555.66;1670505;84;21289;-83
2022/07/22 06:27:23;;;;;;;7.12;5.95;;;;;;;19.56;83.73;99557.14;1669843;85;21118;-77
2022/07/22 06:29:50;;;;;;;4.87;4.47;;;;;;;19.64;83.63;99559.66;1669535;85;21036;-80
2022/07/22 06:32:18;;;;;;;4.62;4.15;;;;;;;19.70;83.01;99555.69;1668253;85;21062;-80
2022/07/22 06:34:45;;;;;;;4.30;3.87;;;;;;;19.75;82.48;99548.18;1669689;85;20960;-80
2022/07/22 06:37:11;;;;;;;7.70;3.92;;;;;;;19.84;82.36;99548.22;1686250;84;21283;-80
2022/07/22 06:39:38;;;;;;;7.15;3.62;;;;;;;19.95;81.83;99549.56;1684375;84;21076;-79
2022/07/22 06:42:10;;;;;;;4.65;4.28;;;;;;;20.02;80.95;99555.35;1670942;85;21015;-78
2022/07/22 06:44:40;;;;;;;5.30;3.60;;;;;;;20.08;80.20;99549.19;1668048;86;21060;-78
2022/07/22 06:47:17;;;;;;;4.47;4.08;;;;;;;20.13;79.79;99556.69;1606117;86;21032;-78
2022/07/22 06:49:45;;;;;;;4.65;3.60;;;;;;;20.19;78.76;99553.25;1669721;86;21850;-77
2022/07/22 06:52:13;;;;;;;4.42;3.87;;;;;;;20.26;77.27;99557.13;1669255;86;21052;-82
2022/07/22 06:54:39;;;;;;;4.33;3.92;;;;;;;20.32;74.93;99559.99;1692397;84;21118;-78
2022/07/22 06:57:06;;;;;;;4.35;4.05;;;;;;;20.34;74.42;99562.39;1699463;84;21059;-77
2022/07/22 06:59:33;;;;;;;3.75;3.45;;;;;;;20.38;75.65;99557.92;1697598;84;22251;-82
2022/07/22 07:02:01;;;;;;;3.70;3.40;;;;;;;20.49;74.11;99554.31;1682385;84;21084;-83
2022/07/22 07:04:28;;;;;;;5.05;3.20;;;;;;;20.49;74.11;99554.31;1669769;86;21521;-81
2022/07/22 07:06:55;;;;;;;3.75;2.50;;;;;;;20.63;71.52;99550.87;1669682;84;21552;-81
2022/07/22 07:09:26;;;;;;;3.47;3.17;;;;;;;20.63;71.52;99550.87;1665256;86;21040;-79
2022/07/22 07:11:56;;;;;;;3.17;2.87;;;;;;;20.69;71.69;99549.60;1668285;86;21092;-78
2022/07/22 07:14:27;;;;;;;4.92;2.35;;;;;;;20.76;72.17;99555.41;1664783;86;21278;-80
2022/07/22 07:16:54;;;;;;;3.83;3.05;;;;;;;20.82;71.48;99550.81;1669855;86;21126;-79
2022/07/22 07:19:23;;;;;;;2.85;2.60;;;;;;;20.87;69.67;99577.19;1669413;85;21529;-78
2022/07/22 07:21:50;;;;;;;4.20;2.80;;;;;;;20.93;68.21;99562.25;1695966;84;21087;-83
2022/07/22 07:24:16;;;;;;;5.00;2.75;;;;;;;20.98;67.96;99565.38;1669371;85;21084;-78
2022/07/22 07:26:43;;;;;;;6.15;3.35;;;;;;;21.05;66.62;99573.36;1642531;86;21248;-79
2022/07/22 07:29:10;;;;;;;5.47;2.50;;;;;;;21.10;66.81;99566.92;1669491;85;21174;-77
2022/07/22 07:31:39;;;;;;;6.05;2.90;;;;;;;21.17;66.94;99562.59;1669387;86;21071;-76
2022/07/22 07:34:09;;;;;;;4.42;2.85;;;;;;;21.28;65.93;99584.96;1668994;85;21528;-77
2022/07/22 07:36:36;;;;;;;3.98;3.58;;;;;;;21.34;65.91;99583.68;1696744;84;21110;-77
2022/07/22 07:39:04;;;;;;;2.60;2.40;;;;;;;21.37;65.97;99578.11;1691608;84;21445;-78
2022/07/22 07:41:32;;;;;;;3.50;3.20;;;;;;;21.40;65.78;99565.94;1663824;84;20976;-81
2022/07/22 07:43:58;;;;;;;4.78;2.80;;;;;;;21.45;66.12;99572.62;1676710;84;21036;-82
2022/07/22 07:46:25;;;;;;;3.62;3.33;;;;;;;21.54;65.94;99572.03;1662431;86;21497;-80
2022/07/22 07:48:54;;;;;;;2.35;2.15;;;;;;;21.61;64.75;99569.62;1662363;86;21100;-78
2022/07/22 07:51:22;;;;;;;2.72;2.52;;;;;;;21.68;63.75;99570.47;1662233;86;21231;-79
2022/07/22 07:53:48;;;;;;;3.27;2.60;;;;;;;21.73;64.35;99571.10;1666292;84;21058;-80
2022/07/22 07:56:17;;;;;;;2.62;2.42;;;;;;;21.78;64.14;99584.38;1693421;84;21062;-82
2022/07/22 07:58:44;;;;;;;2.72;2.52;;;;;;;21.85;63.21;99597.02;1693312;84;21079;-81
2022/07/22 08:01:11;;;;;;;4.33;2.62;;;;;;;21.89;62.96;99586.45;1693569;84;21032;-83
2022/07/22 08:03:37;;;;;;;4.10;2.37;;;;;;;21.93;62.89;99576.47;1692939;84;21354;-84
2022/07/22 08:06:06;;;;;;;2.37;2.17;;;;;;;22.00;63.46;99571.86;1662377;86;20981;-80
2022/07/22 08:08:33;;;;;;;4.60;2.50;;;;;;;22.04;62.57;99590.61;1661019;84;21107;-78
2022/07/22 08:11:03;;;;;;;4.90;2.25;;;;;;;22.04;60.50;99575.55;1661832;85;21216;-79
2022/07/22 08:13:33;;;;;;;2.08;1.87;;;;;;;22.07;59.72;99578.42;1681494;84;21135;-79
2022/07/22 08:16:05;;;;;;;3.17;1.57;;;;;;;22.12;58.65;99575.51;1679580;85;21027;-79
2022/07/22 08:18:32;;;;;;;4.30;2.40;;;;;;;22.20;57.83;99566.22;1690741;83;21020;-80
2022/07/22 08:20:59;;;;;;;5.28;4.12;;;;;;;22.28;58.27;99576.33;1693104;84;21083;-75
2022/07/22 08:23:32;;;;;;;2.80;2.50;;;;;;;22.32;57.32;99575.90;1689894;84;21119;-76
2022/07/22 08:25:58;;;;;;;3.55;2.80;;;;;;;22.36;57.96;99581.77;1662460;86;21040;-74
2022/07/22 08:28:26;;;;;;;2.77;2.33;;;;;;;22.46;57.97;99581.95;1687523;84;21885;-76
2022/07/22 08:30:53;;;;;;;2.08;1.95;;;;;;;22.53;57.09;99574.02;1691614;84;20941;-75
2022/07/22 08:33:20;;;;;;;3.47;3.08;;;;;;;22.56;56.10;99576.09;1679620;84;20976;-76
2022/07/22 08:35:46;;;;;;;3.25;1.60;;;;;;;22.62;56.66;99569.29;1693404;83;20960;-77
2022/07/22 08:38:13;;;;;;;2.12;2.00;;;;;;;22.64;55.54;99590.90;1691648;84;21012;-77
2022/07/22 08:40:39;;;;;;;2.58;2.37;;;;;;;22.68;56.40;99581.67;1662471;86;21381;-77
2022/07/22 08:43:06;;;;;;;1.70;1.60;;;;;;;22.77;55.92;99567.93;1664035;84;20918;-75
2022/07/22 08:45:34;;;;;;;8.55;2.20;;;;;;;22.85;56.32;99569.80;1662192;86;20975;-77
2022/07/22 08:48:03;;;;;;;3.17;2.08;;;;;;;22.93;53.64;99574.41;1675560;84;21101;-77
2022/07/22 08:50:48;;;;;;;4.00;2.30;;;;;;;22.97;54.80;99577.52;1676473;84;21028;-76
2022/07/22 08:53:25;;;;;;;1.50;1.40;;;;;;;23.08;55.66;99577.11;1689594;84;21493;-78
2022/07/22 08:55:54;;;;;;;3.02;2.27;;;;;;;23.17;54.49;99578.64;1673247;85;21379;-76
2022/07/22 08:58:20;;;;;;;2.33;1.60;;;;;;;23.28;54.71;99579.85;1674365;84;21024;-77
2022/07/22 09:01:04;;;;;;;2.25;2.05;;;;;;;23.38;52.96;99592.36;1684821;84;21405;-77
2022/07/22 09:03:31;;;;;;;2.70;2.50;;;;;;;23.39;54.95;99599.46;1648806;85;21074;-75
2022/07/22 09:06:01;;;;;;;3.22;2.00;;;;;;;23.35;55.20;99586.98;1703483;83;21070;-77
2022/07/22 09:08:28;;;;;;;2.00;1.80;;;;;;;23.34;55.04;99592.23;1667479;84;21087;-80
2022/07/22 09:11:21;;;;;;;3.00;1.67;;;;;;;23.31;53.05;99586.03;1702313;83;21046;-83
2022/07/22 09:13:53;;;;;;;1.80;1.70;;;;;;;23.28;53.03;99582.59;1698680;83;21092;-84
2022/07/22 09:16:43;;;;;;;5.60;2.05;;;;;;;23.34;53.54;99573.59;1678681;84;21624;-81
2022/07/22 09:19:32;;;;;;;2.40;2.20;;;;;;;23.46;54.48;99588.75;1659149;86;21991;-77
2022/07/22 09:22:06;;;;;;;2.92;2.72;;;;;;;23.60;54.79;99584.33;1694587;84;21078;-79
2022/07/22 09:24:35;;;;;;;3.67;2.22;;;;;;;23.68;54.64;99585.64;1698101;83;21021;-79
2022/07/22 09:27:06;;;;;;;2.62;1.90;;;;;;;23.69;53.48;99591.34;1681392;83;21020;-78
2022/07/22 09:29:34;;;;;;;1.85;1.75;;;;;;;23.73;50.90;99603.27;1659994;86;21086;-77
2022/07/22 09:32:15;;;;;;;10.23;2.08;;;;;;;23.74;50.54;99580.14;1672795;85;21846;-81
2022/07/22 09:34:50;;;;;;;2.12;1.72;;;;;;;23.76;51.05;99603.16;1699378;83;20999;-75
2022/07/22 09:37:21;;;;;;;6.37;2.00;;;;;;;23.80;51.40;99581.53;1650045;85;20963;-75
2022/07/22 09:39:50;;;;;;;2.00;1.82;;;;;;;23.87;51.50;99595.52;1688328;85;21143;-74
2022/07/22 09:42:17;;;;;;;3.83;1.62;;;;;;;23.87;52.04;99595.52;1670954;85;20999;-75
2022/07/22 09:44:45;;;;;;;2.00;1.80;;;;;;;23.85;52.06;99597.80;1668960;85;21605;-78
2022/07/22 09:47:29;;;;;;;2.50;2.30;;;;;;;23.85;52.24;99599.73;1636414;85;21082;-77
2022/07/22 09:50:31;;;;;;;5.55;1.80;;;;;;;23.91;52.22;99609.38;1666865;85;21019;-80
2022/07/22 09:53:06;;;;;;;2.05;1.90;;;;;;;23.97;51.55;99591.54;1637113;85;21083;-77
2022/07/22 09:55:38;;;;;;;2.30;2.12;;;;;;;24.07;50.98;99600.72;1669803;85;21006;-74
2022/07/22 09:58:03;;;;;;;1.95;1.77;;;;;;;24.12;50.17;99607.36;1669726;86;21100;-75
2022/07/22 10:00:31;;;;;;;8.23;2.05;;;;;;;24.21;49.85;99603.16;1669331;85;20909;-76
2022/07/22 10:03:01;;;;;;;2.12;1.95;;;;;;;24.30;49.69;99597.78;1669626;85;21102;-77
2022/07/22 10:05:35;;;;;;;2.87;2.67;;;;;;;24.32;48.08;99599.59;1643736;85;21096;-78
2022/07/22 10:08:04;;;;;;;3.22;1.77;;;;;;;24.36;48.76;99607.18;1670730;85;21048;-76
2022/07/22 10:10:33;;;;;;;4.03;2.00;;;;;;;24.42;49.70;99605.78;1644513;85;21302;-77
2022/07/22 10:13:03;;;;;;;3.60;2.10;;;;;;;24.49;50.08;99597.20;1670628;85;21545;-79
2022/07/22 10:15:34;;;;;;;1.92;1.65;;;;;;;24.55;49.49;99590.91;1667464;85;32713;-76
2022/07/22 10:18:10;;;;;;;2.15;1.95;;;;;;;24.62;49.63;99604.30;1669885;85;21043;-79
2022/07/22 10:20:38;;;;;;;2.95;1.90;;;;;;;24.67;49.26;99617.01;1669822;85;21008;-78
2022/07/22 10:23:07;;;;;;;2.10;2.00;;;;;;;24.80;48.83;99610.34;1669592;86;21301;-78
2022/07/22 10:25:58;;;;;;;1.67;1.57;;;;;;;24.88;48.33;99617.72;1669640;86;21560;-80
2022/07/22 10:28:31;;;;;;;1.77;1.65;;;;;;;24.86;48.81;99609.53;1686716;84;21140;-82
2022/07/22 10:31:23;;;;;;;1.50;1.37;;;;;;;24.78;48.38;99609.09;1688620;84;21188;-82
2022/07/22 10:33:55;;;;;;;1.72;1.37;;;;;;;24.78;46.35;99594.77;1672067;85;21051;-80
2022/07/22 10:36:34;;;;;;;1.90;1.80;;;;;;;24.88;46.29;99597.65;1670993;85;21598;-78
2022/07/22 10:39:08;;;;;;;3.70;1.70;;;;;;;25.03;45.97;99601.86;1683761;85;21061;-77
2022/07/22 10:41:44;;;;;;;1.85;1.75;;;;;;;25.15;45.73;99601.02;1688566;85;21111;-76
2022/07/22 10:44:12;;;;;;;1.60;1.50;;;;;;;25.19;46.79;99629.44;1687831;84;21103;-82
2022/07/22 10:46:51;;;;;;;1.95;1.80;;;;;;;25.15;46.95;99627.16;1685131;85;21513;-80
2022/07/22 10:49:21;;;;;;;1.72;1.62;;;;;;;25.17;47.18;99609.16;1687648;85;21138;-80
2022/07/22 10:52:16;;;;;;;5.08;2.83;;;;;;;25.21;45.64;99592.73;1680267;85;21007;-80
2022/07/22 10:55:21;;;;;;;2.15;1.95;;;;;;;25.26;45.75;99609.02;1642834;86;21062;-79
2022/07/22 10:57:48;;;;;;;1.60;1.50;;;;;;;25.35;45.88;99601.98;1679217;84;21047;-79
2022/07/22 11:00:16;;;;;;;4.97;1.57;;;;;;;25.46;45.35;99627.87;1701439;84;21576;-77
2022/07/22 11:02:44;;;;;;;1.55;1.32;;;;;;;25.47;44.76;99619.24;1707652;83;21055;-80
2022/07/22 11:05:10;;;;;;;2.50;1.70;;;;;;;25.49;44.94;99618.90;1707629;83;21004;-78
2022/07/22 11:07:46;;;;;;;1.55;1.45;;;;;;;25.57;44.15;99641.38;1691725;84;21100;-79
2022/07/22 11:10:17;;;;;;;1.92;1.82;;;;;;;25.67;43.98;99618.03;1662253;86;20952;-75
2022/07/22 11:12:49;;;;;;;1.25;1.20;;;;;;;25.72;44.39;99612.28;1663496;85;21103;-74
2022/07/22 11:15:16;;;;;;;1.62;1.52;;;;;;;25.70;44.82;99601.62;1694594;84;21773;-74
2022/07/22 11:17:42;;;;;;;1.60;1.32;;;;;;;25.73;44.92;99616.64;1693471;83;20967;-76
2022/07/22 11:20:12;;;;;;;3.87;1.82;;;;;;;25.72;43.53;99609.52;1693549;84;21410;-71
2022/07/22 11:22:39;;;;;;;2.00;1.65;;;;;;;25.73;43.79;99619.39;1659923;83;21557;-72
2022/07/22 11:25:09;;;;;;;4.60;1.72;;;;;;;25.75;44.63;99610.21;1660326;86;21093;-73
2022/07/22 11:27:35;;;;;;;1.62;1.12;;;;;;;25.73;44.87;99608.38;1660583;86;21075;-70
2022/07/22 11:30:04;;;;;;;1.72;1.40;;;;;;;25.67;43.81;99607.82;1654291;86;21071;-76
2022/07/22 11:32:32;;;;;;;1.40;1.30;;;;;;;25.70;43.38;99596.12;1644385;86;21045;-75
2022/07/22 11:34:59;;;;;;;2.12;1.92;;;;;;;25.78;42.65;99613.05;1644585;86;21064;-78
2022/07/22 11:37:27;;;;;;;1.25;1.15;;;;;;;25.88;42.29;99611.16;1654453;86;21154;-76